Latest Weather Observations for South Channel Island

IDV60901

Issued at 10:11 pm EDT Saturday 25 January 2020 (issued every 10 minutes, with the page automatically refreshed every 10 minutes)

About weather observations | Map of Melbourne area stations | Latest observations for Melbourne area | Other Formats
Station Details ID: 086344 Name: SOUTH CHANNEL ISLAND Lat: -38.31 Lon: 144.80 Height: 9.0 m
Data from the previous 72 hours. | See also: Recent months at South Channel Island
Date/Time
EDT
Temp
°C
App
Temp
°C
Dew
Point
°C
Rel
Hum
%
Delta-T
°C
Wind Press
QNH
hPa
Press
MSL
hPa
Rain since
9am
mm
Dir  Spd
km/h
Gust
km/h
Spd
kts
Gust
kts
25/10:00pm - - - - - SE 19 20 10 11 - - -
25/09:30pm - - - - - SSE 26 30 14 16 - - -
25/09:00pm - - - - - S 32 37 17 20 - - -
25/08:30pm - - - - - S 28 32 15 17 - - -
25/08:00pm - - - - - SSE 22 26 12 14 - - -
25/07:30pm - - - - - SSE 28 32 15 17 - - -
25/07:00pm - - - - - S 30 32 16 17 - - -
25/06:30pm - - - - - S 30 35 16 19 - - -
25/06:00pm - - - - - S 33 39 18 21 - - -
25/05:30pm - - - - - S 32 37 17 20 - - -
25/05:00pm - - - - - S 33 37 18 20 - - -
25/04:30pm - - - - - S 30 33 16 18 - - -
25/04:14pm - - - - - S 28 30 15 16 - - -
25/04:00pm - - - - - E 9 11 5 6 - - -
25/03:30pm - - - - - NE 17 19 9 10 - - -
25/03:00pm - - - - - NE 15 19 8 10 - - -
25/02:30pm - - - - - NE 17 19 9 10 - - -
25/02:00pm - - - - - ENE 17 19 9 10 - - -
25/01:30pm - - - - - ENE 19 20 10 11 - - -
25/01:00pm - - - - - ENE 15 17 8 9 - - -
25/12:30pm - - - - - E 13 15 7 8 - - -
25/12:00pm - - - - - ENE 11 13 6 7 - - -
25/11:30am - - - - - E 6 9 3 5 - - -
25/11:00am - - - - - SSW 7 9 4 5 - - -
25/10:30am - - - - - NW 7 9 4 5 - - -
25/10:00am - - - - - NW 11 15 6 8 - - -
25/09:30am - - - - - NW 15 19 8 10 - - -
25/09:00am - - - - - NW 15 15 8 8 - - -
25/08:30am - - - - - NW 13 15 7 8 - - -
25/08:00am - - - - - NW 15 17 8 9 - - -
25/07:30am - - - - - SW 13 15 7 8 - - -
25/07:00am - - - - - S 11 13 6 7 - - -
25/06:30am - - - - - S 9 11 5 6 - - -
25/06:00am - - - - - S 7 9 4 5 - - -
25/05:30am - - - - - CALM 0 0 0 0 - - -
25/05:00am - - - - - E 7 7 4 4 - - -
25/04:30am - - - - - E 7 7 4 4 - - -
25/04:00am - - - - - E 7 9 4 5 - - -
25/03:30am - - - - - ENE 9 11 5 6 - - -
25/03:00am - - - - - ENE 11 13 6 7 - - -
25/02:30am - - - - - SE 7 7 4 4 - - -
25/02:00am - - - - - SE 11 13 6 7 - - -
25/01:30am - - - - - ESE 15 17 8 9 - - -
25/01:00am - - - - - SSE 19 20 10 11 - - -
25/12:30am - - - - - SE 17 19 9 10 - - -
25/12:00am - - - - - SSE 17 20 9 11 - - -
 
Date/Time
EDT
Temp
°C
App
Temp
°C
Dew
Point
°C
Rel
Hum
%
Delta-T
°C
Wind Press
QNH
hPa
Press
MSL
hPa
Rain since
9am
mm
Dir  Spd
km/h
Gust
km/h
Spd
kts
Gust
kts
24/11:30pm - - - - - SE 22 26 12 14 - - -
24/11:00pm - - - - - S 24 30 13 16 - - -
24/10:30pm - - - - - SSE 13 15 7 8 - - -
24/10:00pm - - - - - S 17 24 9 13 - - -
24/09:30pm - - - - - SE 11 13 6 7 - - -
24/09:00pm - - - - - SSE 13 15 7 8 - - -
24/08:30pm - - - - - SSW 13 22 7 12 - - -
24/08:00pm - - - - - W 17 20 9 11 - - -
24/07:30pm - - - - - WNW 26 30 14 16 - - -
24/07:00pm - - - - - WNW 24 32 13 17 - - -
24/06:30pm - - - - - NW 26 35 14 19 - - -
24/06:00pm - - - - - NW 30 33 16 18 - - -
24/05:30pm - - - - - NW 28 33 15 18 - - -
24/05:00pm - - - - - NW 28 33 15 18 - - -
24/04:30pm - - - - - NW 30 33 16 18 - - -
24/04:00pm - - - - - WNW 17 28 9 15 - - -
24/03:30pm - - - - - W 20 26 11 14 - - -
24/03:00pm - - - - - W 24 30 13 16 - - -
24/02:30pm - - - - - W 26 30 14 16 - - -
24/02:00pm - - - - - WNW 32 35 17 19 - - -
24/01:30pm - - - - - W 30 37 16 20 - - -
24/01:00pm - - - - - WNW 28 33 15 18 - - -
24/12:30pm - - - - - WNW 28 35 15 19 - - -
24/12:00pm - - - - - W 26 33 14 18 - - -
24/11:30am - - - - - W 28 35 15 19 - - -
24/11:00am - - - - - WNW 32 37 17 20 - - -
24/10:30am - - - - - NW 30 33 16 18 - - -
24/10:00am - - - - - WNW 35 41 19 22 - - -
24/09:30am - - - - - WNW 43 52 23 28 - - -
24/09:00am - - - - - WNW 39 46 21 25 - - -
24/08:30am - - - - - NW 37 48 20 26 - - -
24/08:00am - - - - - NW 39 48 21 26 - - -
24/07:30am - - - - - NW 39 56 21 30 - - -
24/07:00am - - - - - NW 35 41 19 22 - - -
24/06:30am - - - - - NW 37 46 20 25 - - -
24/06:00am - - - - - WNW 37 43 20 23 - - -
24/05:30am - - - - - WNW 39 44 21 24 - - -
24/05:00am - - - - - WNW 33 41 18 22 - - -
24/04:30am - - - - - NW 35 41 19 22 - - -
24/04:00am - - - - - WNW 37 46 20 25 - - -
24/03:30am - - - - - WNW 35 43 19 23 - - -
24/03:00am - - - - - WNW 37 44 20 24 - - -
24/02:30am - - - - - WNW 37 48 20 26 - - -
24/02:00am - - - - - WNW 32 37 17 20 - - -
24/01:30am - - - - - NW 28 33 15 18 - - -
24/01:00am - - - - - W 32 37 17 20 - - -
24/12:30am - - - - - W 35 41 19 22 - - -
24/12:00am - - - - - W 37 44 20 24 - - -
 
Date/Time
EDT
Temp
°C
App
Temp
°C
Dew
Point
°C
Rel
Hum
%
Delta-T
°C
Wind Press
QNH
hPa
Press
MSL
hPa
Rain since
9am
mm
Dir  Spd
km/h
Gust
km/h
Spd
kts
Gust
kts
23/11:30pm - - - - - W 43 50 23 27 - - -
23/11:00pm - - - - - W 48 54 26 29 - - -
23/10:30pm - - - - - WSW 44 54 24 29 - - -
23/10:00pm - - - - - W 33 41 18 22 - - -
23/09:30pm - - - - - W 37 43 20 23 - - -
23/09:00pm - - - - - W 37 41 20 22 - - -
23/08:30pm - - - - - W 37 46 20 25 - - -
23/08:00pm - - - - - W 44 52 24 28 - - -
23/07:30pm - - - - - W 44 54 24 29 - - -
23/07:00pm - - - - - W 48 57 26 31 - - -
23/06:30pm - - - - - W 48 67 26 36 - - -
23/06:26pm - - - - - W 46 65 25 35 - - -
23/06:00pm - - - - - W 50 61 27 33 - - -
23/05:35pm - - - - - W 43 61 23 33 - - -
23/05:30pm - - - - - W 43 54 23 29 - - -
23/05:00pm - - - - - W 52 61 28 33 - - -
23/04:45pm - - - - - WSW 52 72 28 39 - - -
23/04:37pm - - - - - WNW 54 67 29 36 - - -
23/04:30pm - - - - - WNW 54 67 29 36 - - -
23/04:00pm - - - - - WNW 57 70 31 38 - - -
23/03:55pm - - - - - WNW 57 76 31 41 - - -
23/03:30pm - - - - - W 56 69 30 37 - - -
23/03:02pm - - - - - WNW 50 69 27 37 - - -
23/03:00pm - - - - - WNW 52 69 28 37 - - -
23/02:43pm - - - - - WNW 54 78 29 42 - - -
23/02:30pm - - - - - NW 57 74 31 40 - - -
23/02:23pm - - - - - WNW 50 74 27 40 - - -
23/02:00pm - - - - - WNW 50 65 27 35 - - -
23/01:30pm - - - - - NW 44 65 24 35 - - -
23/01:12pm - - - - - WNW 43 48 23 26 - - -
23/01:00pm - - - - - W 50 63 27 34 - - -
23/12:47pm - - - - - W 43 61 23 33 - - -
23/12:30pm - - - - - W 57 70 31 38 - - -
23/12:19pm - - - - - NW 50 70 27 38 - - -
23/12:17pm - - - - - NNW 48 70 26 38 - - -
23/12:00pm - - - - - N 43 50 23 27 - - -
23/11:30am - - - - - N 43 50 23 27 - - -
23/11:00am - - - - - N 39 46 21 25 - - -
23/10:30am - - - - - N 39 46 21 25 - - -
23/10:00am - - - - - NNW 33 37 18 20 - - -
23/09:30am - - - - - NNW 37 41 20 22 - - -
23/09:00am - - - - - NNW 32 37 17 20 - - -
23/08:30am - - - - - NNW 28 30 15 16 - - -
23/08:00am - - - - - WNW 26 30 14 16 - - -
23/07:30am - - - - - WNW 26 30 14 16 - - -
23/07:00am - - - - - NNW 32 37 17 20 - - -
23/06:30am - - - - - N 32 39 17 21 - - -
23/06:00am - - - - - N 24 30 13 16 - - -
23/05:30am - - - - - NNE 20 24 11 13 - - -
23/05:00am - - - - - NNE 15 19 8 10 - - -
23/04:30am - - - - - NW 13 17 7 9 - - -
23/04:00am - - - - - WNW 17 22 9 12 - - -
23/03:30am - - - - - WNW 17 20 9 11 - - -
23/03:00am - - - - - W 13 15 7 8 - - -
23/02:30am - - - - - WSW 15 22 8 12 - - -
23/02:00am - - - - - WSW 17 22 9 12 - - -
23/01:30am - - - - - W 11 15 6 8 - - -
23/01:00am - - - - - WSW 15 20 8 11 - - -
23/12:30am - - - - - W 32 41 17 22 - - -
23/12:00am - - - - - W 17 24 9 13 - - -
 
Date/Time
EDT
Temp
°C
App
Temp
°C
Dew
Point
°C
Rel
Hum
%
Delta-T
°C
Wind Press
QNH
hPa
Press
MSL
hPa
Rain since
9am
mm
Dir  Spd
km/h
Gust
km/h
Spd
kts
Gust
kts
22/11:30pm - - - - - W 22 26 12 14 - - -
22/11:00pm - - - - - WSW 30 35 16 19 - - -
22/10:57pm - - - - - WSW 30 35 16 19 - - -
22/10:30pm - - - - - SW 39 48 21 26 - - -
22/10:15pm - - - - - SW 44 52 24 28 - - -

Latest Capital City Observations: Canberra | Sydney | Melbourne | Brisbane | Adelaide | Perth | Hobart | Darwin

Other formats

Comma delimited format used in spreadsheet applications
http://www.bom.gov.au/fwo/IDV60901/IDV60901.94853.axf

JavaScript Object Notation format (JSON) in row-major order
http://www.bom.gov.au/fwo/IDV60901/IDV60901.94853.json

Data quality

Most of these data are generated automatically and are frequently updated. Quality checks on data are not normally performed. It is possible for incorrect values to appear. Refer to information at About Latest Weather Observations and please check the disclaimer before using these data.